KTIK/TIK METAR and TAF weather

Enter ICAO airport designator
Station Type Date Time Source
KTIK METAR 2021/08/05 03:56 UTC NOAA

KTIK 050356Z AUTO 11003KT 10SM CLR 23/16 A3008 RMK AO2 SLP180 T02340157


Station Type Date Time Source
KTIK Decoded METAR 2021/08/05 03:56 UTC NOAA

Tinker Air Force Base, OK, United States (KTIK) 35-25N 097-23W 397M
Aug 04, 2021 - 11:56 PM EDT / 2021.08.05 0356 UTC
Wind: from the ESE (110 degrees) at 3 MPH (3 KT):0
Visibility: 10 mile(s):0
Sky conditions: clear
Temperature: 74.1 F (23.4 C)
Dew Point: 60.3 F (15.7 C)
Relative Humidity: 61%
Pressure (altimeter): 30.08 in. Hg (1018 hPa)
ob: KTIK 050356Z AUTO 11003KT 10SM CLR 23/16 A3008 RMK AO2 SLP180 T02340157
cycle: 4

Station Type Date Time Source
KTIK TAF 2021/08/05 01:08 UTC NOAA

TAF KTIK 050100Z 0501/0607 VRB06KT 9999 SCT180 QNH2998INS
BECMG 0512/0513 19010G15KT 9999 FEW030 BKN130 QNH3000INS
TEMPO 0516/0520 18012G18KT 8000 -SHRA SCT030
BECMG 0522/0523 18008KT 9999 FEW050 QNH2994INS TX31/0522Z TN20/0512Z

Example: see airport list